createdAt,value
2022-10-09T00:01:05.762Z,3.20
2022-10-09T00:03:33.736Z,3.30
2022-10-09T00:06:01.294Z,2.70
2022-10-09T00:08:28.928Z,2.72
2022-10-09T00:10:56.239Z,2.25
2022-10-09T00:13:23.790Z,2.72
2022-10-09T00:15:50.989Z,2.47
2022-10-09T00:18:18.827Z,2.97
2022-10-09T00:20:47.120Z,2.70
2022-10-09T00:23:16.764Z,2.20
2022-10-09T00:25:54.513Z,2.15
2022-10-09T00:28:23.041Z,2.50
2022-10-09T00:30:50.357Z,2.13
2022-10-09T00:33:17.722Z,2.60
2022-10-09T00:35:45.058Z,2.45
2022-10-09T00:38:12.527Z,2.20
2022-10-09T00:40:40.157Z,2.63
2022-10-09T00:43:13.185Z,2.65
2022-10-09T00:45:42.547Z,2.20
2022-10-09T00:48:11.620Z,2.40
2022-10-09T00:50:44.453Z,2.88
2022-10-09T00:53:14.367Z,2.45
2022-10-09T00:55:41.808Z,2.45
2022-10-09T00:58:09.286Z,2.08
2022-10-09T01:00:36.634Z,2.10
2022-10-09T01:03:03.943Z,1.70
2022-10-09T01:05:42.339Z,2.17
2022-10-09T01:08:20.751Z,2.05
2022-10-09T01:10:55.525Z,2.67
2022-10-09T01:13:42.419Z,2.50
2022-10-09T01:16:28.076Z,2.40
2022-10-09T01:18:55.337Z,2.42
2022-10-09T01:21:42.854Z,2.03
2022-10-09T01:24:13.072Z,1.77
2022-10-09T01:26:59.326Z,2.50
2022-10-09T01:29:29.390Z,2.10
2022-10-09T01:31:58.124Z,1.98
2022-10-09T01:34:26.048Z,1.98
2022-10-09T01:36:53.924Z,2.03
2022-10-09T01:39:23.309Z,2.28
2022-10-09T01:41:52.635Z,2.63
2022-10-09T01:44:20.687Z,2.65
2022-10-09T01:46:48.253Z,2.50
2022-10-09T01:49:26.000Z,2.50
2022-10-09T01:52:11.281Z,2.85
2022-10-09T01:54:43.331Z,2.83
2022-10-09T01:57:12.024Z,3.28
2022-10-09T01:59:41.295Z,3.00
2022-10-09T02:02:09.634Z,3.58
2022-10-09T02:04:39.648Z,4.00
2022-10-09T02:07:07.414Z,4.60
2022-10-09T02:09:35.341Z,4.25
2022-10-09T02:12:07.395Z,3.53
2022-10-09T02:14:35.330Z,3.78
2022-10-09T02:17:05.581Z,3.90
2022-10-09T02:19:38.056Z,4.50
2022-10-09T02:22:13.930Z,4.45
2022-10-09T02:24:42.046Z,4.32
2022-10-09T02:27:09.701Z,4.45
2022-10-09T02:29:38.783Z,4.20
2022-10-09T02:32:06.037Z,4.10
2022-10-09T02:34:33.391Z,3.88
2022-10-09T02:37:01.104Z,3.92
2022-10-09T02:39:28.348Z,3.90
2022-10-09T02:41:55.685Z,4.18
2022-10-09T02:44:23.175Z,4.10
2022-10-09T02:46:50.398Z,3.90
2022-10-09T02:49:17.870Z,3.65
2022-10-09T02:51:45.449Z,3.55
2022-10-09T02:54:12.846Z,3.47
2022-10-09T02:56:40.079Z,3.80
2022-10-09T02:59:07.680Z,3.85
2022-10-09T03:01:34.926Z,3.38
2022-10-09T03:04:02.400Z,3.30
2022-10-09T03:06:30.115Z,3.45
2022-10-09T03:08:57.377Z,3.33
2022-10-09T03:11:25.372Z,3.33
2022-10-09T03:13:52.730Z,2.97
2022-10-09T03:16:21.172Z,3.50
2022-10-09T03:18:48.991Z,2.67
2022-10-09T03:21:17.764Z,3.05
2022-10-09T03:23:45.344Z,3.47
2022-10-09T03:26:17.342Z,3.53
2022-10-09T03:28:47.666Z,3.30
2022-10-09T03:31:33.440Z,3.28
2022-10-09T03:34:03.409Z,3.45
2022-10-09T03:36:30.580Z,3.42
2022-10-09T03:38:57.913Z,3.63
2022-10-09T03:41:25.376Z,3.58
2022-10-09T03:43:52.704Z,3.42
2022-10-09T03:46:19.995Z,3.70
2022-10-09T03:48:47.350Z,3.92
2022-10-09T03:51:14.645Z,4.25
2022-10-09T03:53:41.918Z,4.05
2022-10-09T03:56:09.358Z,3.97
2022-10-09T03:58:36.764Z,4.07
2022-10-09T04:01:04.014Z,3.55
2022-10-09T04:03:31.587Z,4.70
2022-10-09T04:05:58.866Z,4.65
2022-10-09T04:08:26.492Z,5.07
2022-10-09T04:10:57.713Z,4.75
2022-10-09T04:13:25.201Z,5.07
2022-10-09T04:15:53.151Z,5.05
2022-10-09T04:18:20.593Z,5.32
2022-10-09T04:20:51.242Z,6.10
2022-10-09T04:23:19.203Z,6.00
2022-10-09T04:25:46.983Z,5.53
2022-10-09T04:28:14.300Z,6.05
2022-10-09T04:30:41.895Z,5.88
2022-10-09T04:33:12.887Z,6.25
2022-10-09T04:35:47.252Z,5.47
2022-10-09T04:38:14.615Z,6.30
2022-10-09T04:40:42.153Z,6.03
2022-10-09T04:43:09.450Z,6.00
2022-10-09T04:45:40.993Z,5.40
2022-10-09T04:48:08.376Z,6.10
2022-10-09T04:50:38.886Z,5.88
2022-10-09T04:53:06.395Z,5.80
2022-10-09T04:55:33.564Z,5.63
2022-10-09T04:58:00.833Z,4.93
2022-10-09T05:00:28.153Z,4.70
2022-10-09T05:02:55.487Z,4.07
2022-10-09T05:05:22.742Z,3.97
2022-10-09T05:07:50.520Z,3.78
2022-10-09T05:10:17.766Z,3.50
2022-10-09T05:12:45.160Z,3.70
2022-10-09T05:15:12.446Z,3.28
2022-10-09T05:17:39.776Z,3.45
2022-10-09T05:20:07.476Z,3.00
2022-10-09T05:22:34.718Z,2.85
2022-10-09T05:25:01.924Z,3.88
2022-10-09T05:27:29.295Z,3.45
2022-10-09T05:29:56.496Z,3.58
2022-10-09T05:32:24.023Z,3.35
2022-10-09T05:34:51.204Z,3.33
2022-10-09T05:37:18.669Z,4.15
2022-10-09T05:39:45.911Z,3.40
2022-10-09T05:42:13.301Z,4.22
2022-10-09T05:44:40.498Z,3.50
2022-10-09T05:47:07.899Z,4.43
2022-10-09T05:49:35.090Z,5.32
2022-10-09T05:52:02.377Z,5.18
2022-10-09T05:54:29.680Z,5.43
2022-10-09T05:56:56.979Z,5.47
2022-10-09T05:59:24.889Z,5.40
2022-10-09T06:01:53.584Z,5.55
2022-10-09T06:04:24.290Z,5.60
2022-10-09T06:06:51.952Z,6.38
2022-10-09T06:09:22.446Z,6.47
2022-10-09T06:11:50.927Z,6.28
2022-10-09T06:14:18.271Z,6.93
2022-10-09T06:16:46.241Z,7.18
2022-10-09T06:19:15.212Z,7.93
2022-10-09T06:21:43.308Z,6.75
2022-10-09T06:24:28.718Z,6.20
2022-10-09T06:26:56.976Z,5.82
2022-10-09T06:29:24.494Z,5.50
2022-10-09T06:31:51.803Z,5.68
2022-10-09T06:34:20.104Z,6.22
2022-10-09T06:36:50.552Z,7.65
2022-10-09T06:39:17.953Z,7.60
2022-10-09T06:41:45.162Z,9.02
2022-10-09T06:44:32.691Z,8.88
2022-10-09T06:47:00.123Z,8.45
2022-10-09T06:49:27.564Z,9.63
2022-10-09T06:51:55.033Z,7.15
2022-10-09T06:54:22.657Z,6.07
2022-10-09T06:56:49.972Z,4.90
2022-10-09T06:59:17.343Z,5.35
2022-10-09T07:01:44.765Z,6.22
2022-10-09T07:04:13.606Z,6.97
2022-10-09T07:06:42.395Z,6.93
2022-10-09T07:09:11.134Z,6.25
2022-10-09T07:11:39.629Z,6.15
2022-10-09T07:14:07.892Z,4.63
2022-10-09T07:16:36.469Z,4.30
2022-10-09T07:19:09.464Z,3.85
2022-10-09T07:21:36.851Z,4.80
2022-10-09T07:24:05.237Z,4.38
2022-10-09T07:26:33.374Z,4.22
2022-10-09T07:29:00.900Z,3.85
2022-10-09T07:31:28.542Z,4.30
2022-10-09T07:33:57.211Z,4.18
2022-10-09T07:36:24.880Z,4.25
2022-10-09T07:38:53.385Z,4.45
2022-10-09T07:41:21.298Z,4.63
2022-10-09T07:43:48.578Z,5.07
2022-10-09T07:46:17.264Z,5.55
2022-10-09T07:48:45.043Z,5.07
2022-10-09T07:51:20.019Z,6.05
2022-10-09T07:53:47.428Z,5.80
2022-10-09T07:56:21.688Z,5.20
2022-10-09T07:58:50.013Z,5.80
2022-10-09T08:01:20.146Z,5.90
2022-10-09T08:03:48.271Z,5.25
2022-10-09T08:06:15.886Z,5.80
2022-10-09T08:08:43.256Z,5.20
2022-10-09T08:11:16.073Z,5.38
2022-10-09T08:13:44.674Z,5.25
2022-10-09T08:16:12.035Z,4.60
2022-10-09T08:18:39.300Z,4.72
2022-10-09T08:21:09.302Z,4.88
2022-10-09T08:23:36.446Z,4.95
2022-10-09T08:26:04.275Z,5.20
2022-10-09T08:28:31.659Z,5.18
2022-10-09T08:30:58.699Z,4.80
2022-10-09T08:33:26.138Z,4.80
2022-10-09T08:35:54.360Z,5.10
2022-10-09T08:38:45.543Z,4.47
2022-10-09T08:41:09.533Z,5.35
2022-10-09T08:43:39.963Z,4.55
2022-10-09T08:46:20.781Z,4.15
2022-10-09T08:48:50.307Z,4.03
2022-10-09T08:51:31.015Z,4.53
2022-10-09T08:54:26.476Z,5.10
2022-10-09T08:56:54.177Z,4.13
2022-10-09T08:59:20.979Z,4.55
2022-10-09T09:02:22.988Z,4.82
2022-10-09T09:05:23.147Z,3.80
2022-10-09T09:07:55.881Z,4.32
2022-10-09T09:10:42.681Z,4.50
2022-10-09T09:13:15.467Z,4.30
2022-10-09T09:15:49.768Z,3.80
2022-10-09T09:18:45.273Z,3.30
2022-10-09T09:23:48.106Z,3.33
2022-10-09T09:26:20.645Z,3.20
2022-10-09T09:28:52.442Z,3.22
2022-10-09T09:31:25.019Z,3.53
2022-10-09T09:34:17.216Z,3.80
2022-10-09T09:36:49.579Z,3.10
2022-10-09T09:42:24.068Z,3.28
2022-10-09T09:45:02.022Z,4.10
2022-10-09T09:47:43.244Z,3.15
2022-10-09T09:50:28.479Z,3.60
2022-10-09T09:53:00.657Z,3.67
2022-10-09T09:55:30.769Z,3.03
2022-10-09T09:58:04.342Z,3.63
2022-10-09T10:00:31.737Z,3.17
2022-10-09T10:03:14.134Z,2.85
2022-10-09T10:05:43.663Z,3.00
2022-10-09T10:08:31.646Z,3.70
2022-10-09T10:11:18.177Z,3.30
2022-10-09T10:13:49.593Z,3.63
2022-10-09T10:16:24.895Z,3.45
2022-10-09T10:18:53.088Z,4.43
2022-10-09T10:21:21.631Z,4.22
2022-10-09T10:24:05.373Z,4.45
2022-10-09T10:26:43.780Z,3.90
2022-10-09T10:29:20.600Z,3.88
2022-10-09T10:31:50.276Z,3.30
2022-10-09T10:34:32.807Z,3.50
2022-10-09T10:37:05.997Z,4.03
2022-10-09T10:40:14.918Z,3.83
2022-10-09T10:42:52.456Z,4.72
2022-10-09T10:45:44.948Z,4.35
2022-10-09T10:48:18.298Z,4.30
2022-10-09T10:50:58.609Z,4.57
2022-10-09T10:53:37.155Z,4.78
2022-10-09T10:56:12.916Z,4.28
2022-10-09T10:58:51.089Z,4.80
2022-10-09T11:01:52.968Z,5.40
2022-10-09T11:04:52.491Z,4.68
2022-10-09T11:07:49.192Z,4.50
2022-10-09T11:10:24.096Z,3.08
2022-10-09T11:12:57.535Z,2.85
2022-10-09T11:15:39.252Z,3.33
2022-10-09T11:18:18.188Z,3.83
2022-10-09T11:21:05.315Z,3.85
2022-10-09T11:24:11.281Z,3.25
2022-10-09T11:26:59.675Z,3.40
2022-10-09T11:29:37.296Z,4.15
2022-10-09T11:32:28.755Z,4.57
2022-10-09T11:35:03.751Z,4.38
2022-10-09T11:37:39.223Z,4.13
2022-10-09T11:40:23.109Z,2.83
2022-10-09T11:43:18.933Z,2.47
2022-10-09T11:46:33.052Z,2.30
2022-10-09T11:49:19.986Z,2.90
2022-10-09T11:51:55.068Z,2.25
2022-10-09T11:54:23.424Z,1.90
2022-10-09T11:57:05.198Z,1.60
2022-10-09T11:59:36.466Z,1.90
2022-10-09T12:02:25.924Z,1.80
2022-10-09T12:04:55.198Z,2.33
2022-10-09T12:07:41.693Z,1.73
2022-10-09T12:10:20.305Z,1.55
2022-10-09T12:12:58.780Z,1.88
2022-10-09T12:15:47.326Z,1.98
2022-10-09T12:18:22.294Z,2.33
2022-10-09T12:20:50.035Z,1.90
2022-10-09T12:23:26.616Z,2.03
2022-10-09T12:25:56.439Z,1.80
2022-10-09T12:28:36.656Z,2.30
2022-10-09T12:31:07.850Z,2.03
2022-10-09T12:33:46.688Z,1.90
2022-10-09T12:36:26.583Z,2.08
2022-10-09T12:38:54.345Z,1.90
2022-10-09T12:41:29.110Z,1.75
2022-10-09T12:43:57.620Z,1.80
2022-10-09T12:46:34.234Z,2.00
2022-10-09T12:49:04.790Z,2.08
2022-10-09T12:51:34.156Z,2.95
2022-10-09T12:54:08.886Z,2.10
2022-10-09T12:56:38.493Z,2.03
2022-10-09T12:59:07.242Z,1.77
2022-10-09T13:01:35.420Z,2.20
2022-10-09T13:04:04.881Z,2.78
2022-10-09T13:06:45.626Z,3.22
2022-10-09T13:09:22.988Z,3.17
2022-10-09T13:12:05.872Z,3.22
2022-10-09T13:14:53.724Z,3.00
2022-10-09T13:17:29.653Z,3.22
2022-10-09T13:19:59.775Z,3.17
2022-10-09T13:22:33.667Z,2.72
2022-10-09T13:25:04.140Z,3.13
2022-10-09T13:27:34.351Z,3.30
2022-10-09T13:30:01.641Z,2.92
2022-10-09T13:32:28.488Z,3.22
2022-10-09T13:34:55.984Z,3.10
2022-10-09T13:37:24.637Z,2.95
2022-10-09T13:39:56.360Z,2.40
2022-10-09T13:42:29.871Z,3.13
2022-10-09T13:44:56.956Z,3.10
2022-10-09T13:47:24.795Z,2.50
2022-10-09T13:49:51.856Z,2.50
2022-10-09T13:52:18.751Z,2.25
2022-10-09T13:54:45.795Z,1.90
2022-10-09T13:57:12.605Z,2.35
2022-10-09T13:59:40.324Z,2.30
2022-10-09T14:02:07.715Z,2.10
2022-10-09T14:04:34.594Z,2.30
2022-10-09T14:07:01.446Z,2.20
2022-10-09T14:09:28.517Z,2.40
2022-10-09T14:11:55.393Z,2.10
2022-10-09T14:14:22.588Z,2.55
2022-10-09T14:16:50.912Z,2.17
2022-10-09T14:19:18.088Z,2.53
2022-10-09T14:21:46.778Z,2.15
2022-10-09T14:24:14.550Z,2.58
2022-10-09T14:26:41.373Z,2.55
2022-10-09T14:29:09.776Z,2.42
2022-10-09T14:31:36.825Z,2.38
2022-10-09T14:34:03.786Z,2.30
2022-10-09T14:36:31.636Z,2.40
2022-10-09T14:39:01.554Z,2.28
2022-10-09T14:41:30.625Z,2.60
2022-10-09T14:44:00.214Z,2.50
2022-10-09T14:46:28.827Z,1.95
2022-10-09T14:48:57.189Z,2.30
2022-10-09T14:51:26.595Z,2.40
2022-10-09T14:53:58.233Z,2.22
2022-10-09T14:56:26.617Z,2.25
2022-10-09T14:58:53.527Z,2.45
2022-10-09T15:01:22.430Z,2.30
2022-10-09T15:03:49.389Z,2.25
2022-10-09T15:06:18.356Z,2.80
2022-10-09T15:08:45.336Z,2.50
2022-10-09T15:11:12.726Z,2.17
2022-10-09T15:13:40.072Z,2.22
2022-10-09T15:16:14.048Z,2.20
2022-10-09T15:18:41.843Z,2.33
2022-10-09T15:21:36.081Z,2.10
2022-10-09T15:24:04.022Z,2.08
2022-10-09T15:26:33.228Z,2.17
2022-10-09T15:29:03.366Z,1.83
2022-10-09T15:31:38.825Z,2.08
2022-10-09T15:34:07.876Z,1.67
2022-10-09T15:36:37.404Z,1.70
2022-10-09T15:39:07.743Z,1.35
2022-10-09T15:41:37.906Z,1.67
2022-10-09T15:44:24.062Z,1.38
2022-10-09T15:46:50.872Z,1.80
2022-10-09T15:49:18.030Z,1.75
2022-10-09T15:51:45.057Z,1.67
2022-10-09T15:54:12.913Z,1.95
2022-10-09T15:56:41.348Z,1.55
2022-10-09T15:59:12.643Z,1.63
2022-10-09T16:01:39.740Z,1.60
2022-10-09T16:04:06.649Z,1.80
2022-10-09T16:06:33.538Z,1.75
2022-10-09T16:09:01.085Z,1.83
2022-10-09T16:11:28.191Z,1.70
2022-10-09T16:13:55.786Z,2.47
2022-10-09T16:16:25.185Z,1.70
2022-10-09T16:18:52.432Z,1.77
2022-10-09T16:21:26.317Z,1.70
2022-10-09T16:23:58.433Z,2.22
2022-10-09T16:26:27.833Z,1.63
2022-10-09T16:28:54.976Z,1.98
2022-10-09T16:31:24.483Z,2.10
2022-10-09T16:33:52.140Z,1.67
2022-10-09T16:36:19.353Z,1.65
2022-10-09T16:38:46.352Z,1.80
2022-10-09T16:41:18.647Z,1.90
2022-10-09T16:43:47.575Z,1.90
2022-10-09T16:46:24.985Z,2.10
2022-10-09T16:48:53.504Z,1.80
2022-10-09T16:51:26.559Z,2.08
2022-10-09T16:53:55.653Z,2.00
2022-10-09T16:56:24.958Z,2.00
2022-10-09T16:58:55.916Z,2.10
2022-10-09T17:01:23.731Z,2.28
2022-10-09T17:03:50.653Z,2.20
2022-10-09T17:06:23.804Z,2.20
2022-10-09T17:08:56.153Z,1.55
2022-10-09T17:11:23.960Z,1.80
2022-10-09T17:13:52.149Z,1.50
2022-10-09T17:16:21.324Z,1.48
2022-10-09T17:18:48.642Z,2.10
2022-10-09T17:21:17.854Z,1.65
2022-10-09T17:23:45.712Z,1.70
2022-10-09T17:26:16.167Z,1.85
2022-10-09T17:28:44.044Z,2.03
2022-10-09T17:31:14.301Z,1.40
2022-10-09T17:33:43.017Z,1.60
2022-10-09T17:36:10.612Z,2.13
2022-10-09T17:38:37.939Z,1.90
2022-10-09T17:41:09.731Z,1.67
2022-10-09T17:43:37.635Z,1.80
2022-10-09T17:46:04.909Z,1.92
2022-10-09T17:48:34.066Z,2.38
2022-10-09T17:51:03.714Z,2.20
2022-10-09T17:53:31.236Z,1.92
2022-10-09T17:56:03.529Z,1.83
2022-10-09T17:58:33.479Z,2.08
2022-10-09T18:01:05.355Z,2.45
2022-10-09T18:03:32.369Z,2.25
2022-10-09T18:06:02.358Z,2.03
2022-10-09T18:08:31.035Z,1.95
2022-10-09T18:11:00.106Z,2.30
2022-10-09T18:13:26.963Z,2.13
2022-10-09T18:15:54.081Z,2.05
2022-10-09T18:18:21.269Z,2.28
2022-10-09T18:20:48.198Z,2.08
2022-10-09T18:23:18.405Z,2.05
2022-10-09T18:25:47.509Z,2.22
2022-10-09T18:28:15.288Z,2.20
2022-10-09T18:30:48.397Z,2.03
2022-10-09T18:33:15.315Z,1.95
2022-10-09T18:35:42.187Z,2.25
2022-10-09T18:38:10.968Z,2.28
2022-10-09T18:40:45.524Z,1.98
2022-10-09T18:43:12.846Z,1.88
2022-10-09T18:45:46.015Z,2.13
2022-10-09T18:48:13.943Z,2.08
2022-10-09T18:50:41.013Z,2.00
2022-10-09T18:53:08.334Z,1.80
2022-10-09T18:55:35.530Z,2.10
2022-10-09T18:58:03.215Z,2.05
2022-10-09T19:00:30.877Z,1.70
2022-10-09T19:02:57.832Z,1.92
2022-10-09T19:05:24.867Z,2.03
2022-10-09T19:07:52.207Z,2.00
2022-10-09T19:10:19.311Z,2.10
2022-10-09T19:12:46.628Z,2.20
2022-10-09T19:15:14.722Z,2.00
2022-10-09T19:17:42.090Z,2.25
2022-10-09T19:20:09.193Z,2.15
2022-10-09T19:22:36.271Z,3.08
2022-10-09T19:25:04.424Z,2.58
2022-10-09T19:27:32.570Z,2.80
2022-10-09T19:29:59.625Z,2.42
2022-10-09T19:32:26.723Z,2.53
2022-10-09T19:34:53.528Z,2.35
2022-10-09T19:37:22.086Z,2.70
2022-10-09T19:39:51.003Z,2.88
2022-10-09T19:42:18.978Z,2.90
2022-10-09T19:44:47.246Z,3.00
2022-10-09T19:47:15.127Z,2.80
2022-10-09T19:49:42.136Z,2.80
2022-10-09T19:52:09.353Z,2.88
2022-10-09T19:54:37.831Z,2.92
2022-10-09T19:57:04.652Z,2.90
2022-10-09T19:59:31.818Z,2.60
2022-10-09T20:01:58.692Z,2.85
2022-10-09T20:04:25.599Z,2.47
2022-10-09T20:06:52.431Z,4.22
2022-10-09T20:09:20.807Z,3.50
2022-10-09T20:11:48.349Z,2.97
2022-10-09T20:14:15.588Z,3.40
2022-10-09T20:16:42.499Z,2.97
2022-10-09T20:19:09.526Z,2.88
2022-10-09T20:21:36.414Z,2.78
2022-10-09T20:24:03.310Z,3.03
2022-10-09T20:26:33.102Z,2.90
2022-10-09T20:29:00.308Z,2.70
2022-10-09T20:31:28.120Z,2.75
2022-10-09T20:33:55.871Z,3.28
2022-10-09T20:36:37.476Z,3.40
2022-10-09T20:39:07.372Z,3.45
2022-10-09T20:41:35.230Z,3.92
2022-10-09T20:44:03.325Z,3.63
2022-10-09T20:46:32.709Z,3.75
2022-10-09T20:49:01.635Z,3.35
2022-10-09T20:51:28.620Z,3.25
2022-10-09T20:53:57.713Z,4.22
2022-10-09T20:56:26.832Z,4.90
2022-10-09T20:58:54.319Z,4.03
2022-10-09T21:01:21.689Z,3.60
2022-10-09T21:03:48.783Z,3.75
2022-10-09T21:06:18.233Z,3.85
2022-10-09T21:08:45.264Z,4.22
2022-10-09T21:11:16.711Z,4.05
2022-10-09T21:13:45.181Z,4.85
2022-10-09T21:16:17.164Z,4.60
2022-10-09T21:18:44.234Z,5.05
2022-10-09T21:21:16.705Z,4.50
2022-10-09T21:23:45.011Z,4.60
2022-10-09T21:26:13.755Z,5.00
2022-10-09T21:28:41.355Z,4.40
2022-10-09T21:31:28.511Z,4.55
2022-10-09T21:33:56.577Z,4.45
2022-10-09T21:37:20.422Z,4.35
2022-10-09T21:39:49.038Z,4.38
2022-10-09T21:42:15.911Z,4.90
2022-10-09T21:44:42.720Z,4.75
2022-10-09T21:47:18.697Z,5.20
2022-10-09T21:49:45.590Z,5.07
2022-10-09T21:52:12.547Z,4.53
2022-10-09T21:54:39.469Z,5.18
2022-10-09T21:57:06.501Z,4.80
2022-10-09T21:59:33.398Z,5.72
2022-10-09T22:02:00.320Z,5.25
2022-10-09T22:04:27.383Z,5.30
2022-10-09T22:06:54.183Z,5.00
2022-10-09T22:09:21.374Z,5.43
2022-10-09T22:11:48.257Z,5.50
2022-10-09T22:14:15.475Z,6.00
2022-10-09T22:16:42.479Z,5.18
2022-10-09T22:19:09.444Z,5.45
2022-10-09T22:21:36.497Z,5.63
2022-10-09T22:24:03.656Z,5.28
2022-10-09T22:26:30.484Z,5.82
2022-10-09T22:28:57.547Z,5.88
2022-10-09T22:31:26.499Z,5.55
2022-10-09T22:33:58.535Z,5.13
2022-10-09T22:36:27.838Z,5.10
2022-10-09T22:38:56.497Z,5.07
2022-10-09T22:41:24.724Z,5.22
2022-10-09T22:43:54.302Z,5.07
2022-10-09T22:46:33.714Z,5.28
2022-10-09T22:49:01.315Z,5.45
2022-10-09T22:51:29.742Z,5.35
2022-10-09T22:53:57.845Z,5.38
2022-10-09T22:56:30.270Z,4.75
2022-10-09T22:58:57.525Z,4.90
2022-10-09T23:01:40.099Z,5.47
2022-10-09T23:04:13.620Z,5.78
2022-10-09T23:06:41.893Z,5.60
2022-10-09T23:09:10.821Z,5.32
2022-10-09T23:11:37.707Z,5.57
2022-10-09T23:14:05.463Z,5.30
2022-10-09T23:16:32.763Z,6.03
2022-10-09T23:19:06.067Z,5.47
2022-10-09T23:21:35.415Z,4.93
2022-10-09T23:24:02.437Z,5.35
2022-10-09T23:26:31.409Z,5.10
2022-10-09T23:29:06.508Z,5.43
2022-10-09T23:31:33.701Z,5.07
2022-10-09T23:34:01.079Z,5.45
2022-10-09T23:36:29.666Z,5.13
2022-10-09T23:38:57.569Z,4.93
2022-10-09T23:41:26.774Z,5.55
2022-10-09T23:43:54.192Z,6.65
2022-10-09T23:46:24.074Z,4.72
2022-10-09T23:48:51.861Z,5.18
2022-10-09T23:51:20.825Z,5.60
2022-10-09T23:53:47.922Z,5.22
2022-10-09T23:56:25.832Z,5.65
2022-10-09T23:58:53.642Z,5.72
